createdAt,value
2018-11-28T00:00:36.042Z,13.47
2018-11-28T00:03:07.895Z,14.10
2018-11-28T00:05:36.788Z,15.50
2018-11-28T00:08:05.681Z,14.97
2018-11-28T00:10:34.951Z,14.73
2018-11-28T00:13:03.822Z,14.63
2018-11-28T00:15:32.529Z,14.83
2018-11-28T00:18:01.353Z,13.50
2018-11-28T00:20:30.130Z,15.77
2018-11-28T00:22:58.900Z,15.93
2018-11-28T00:25:27.897Z,13.77
2018-11-28T00:27:56.636Z,15.17
2018-11-28T00:30:26.102Z,16.27
2018-11-28T00:32:54.997Z,14.35
2018-11-28T00:35:24.676Z,16.42
2018-11-28T00:37:53.478Z,14.87
2018-11-28T00:40:23.495Z,13.17
2018-11-28T00:42:52.389Z,13.67
2018-11-28T00:45:22.661Z,14.35
2018-11-28T00:47:51.626Z,14.67
2018-11-28T00:50:24.506Z,15.03
2018-11-28T00:52:53.467Z,14.30
2018-11-28T00:55:22.282Z,14.93
2018-11-28T00:57:51.062Z,15.95
2018-11-28T01:00:22.558Z,15.03
2018-11-28T01:02:51.506Z,16.07
2018-11-28T01:05:20.326Z,17.20
2018-11-28T01:07:51.020Z,14.40
2018-11-28T01:10:21.216Z,16.10
2018-11-28T01:12:50.569Z,14.90
2018-11-28T01:15:20.027Z,16.53
2018-11-28T01:17:48.993Z,13.15
2018-11-28T01:20:20.264Z,16.53
2018-11-28T01:22:49.108Z,16.70
2018-11-28T01:25:19.848Z,15.23
2018-11-28T01:27:49.113Z,17.25
2018-11-28T01:30:19.124Z,14.40
2018-11-28T01:32:48.090Z,15.58
2018-11-28T01:35:18.174Z,14.43
2018-11-28T01:37:47.311Z,13.85
2018-11-28T01:40:22.515Z,17.02
2018-11-28T01:42:51.537Z,16.27
2018-11-28T01:45:21.557Z,15.80
2018-11-28T01:47:50.909Z,16.27
2018-11-28T01:50:20.751Z,13.77
2018-11-28T01:52:49.706Z,12.07
2018-11-28T01:55:20.272Z,13.28
2018-11-28T01:57:49.072Z,15.10
2018-11-28T02:00:23.052Z,14.83
2018-11-28T02:02:54.188Z,13.05
2018-11-28T02:05:22.949Z,14.10
2018-11-28T02:07:51.835Z,13.75
2018-11-28T02:10:20.774Z,15.20
2018-11-28T02:12:49.536Z,14.80
2018-11-28T02:15:19.337Z,14.03
2018-11-28T02:17:48.217Z,13.15
2018-11-28T02:20:18.435Z,13.03
2018-11-28T02:22:47.431Z,13.22
2018-11-28T02:25:17.886Z,11.93
2018-11-28T02:27:53.383Z,13.43
2018-11-28T02:30:22.062Z,12.40
2018-11-28T02:32:51.078Z,12.27
2018-11-28T02:35:20.237Z,14.20
2018-11-28T02:37:49.553Z,13.35
2018-11-28T02:40:19.239Z,12.90
2018-11-28T02:42:48.945Z,13.13
2018-11-28T02:45:24.209Z,12.73
2018-11-28T02:47:53.403Z,12.77
2018-11-28T02:50:22.185Z,14.60
2018-11-28T02:52:50.877Z,15.30
2018-11-28T02:55:20.020Z,12.17
2018-11-28T02:57:50.320Z,11.13
2018-11-28T03:00:23.926Z,12.47
2018-11-28T03:02:52.793Z,11.63
2018-11-28T03:05:21.608Z,12.13
2018-11-28T03:07:50.431Z,11.67
2018-11-28T03:10:21.248Z,12.07
2018-11-28T03:12:50.022Z,11.00
2018-11-28T03:15:42.057Z,12.10
2018-11-28T03:18:10.759Z,10.73
2018-11-28T03:20:39.441Z,12.47
2018-11-28T03:23:08.371Z,12.07
2018-11-28T03:25:37.067Z,10.38
2018-11-28T03:28:05.881Z,11.00
2018-11-28T03:30:35.188Z,11.70
2018-11-28T03:33:04.011Z,12.55
2018-11-28T03:35:32.732Z,10.93
2018-11-28T03:38:01.545Z,11.93
2018-11-28T03:40:30.390Z,11.30
2018-11-28T03:42:59.070Z,12.63
2018-11-28T03:45:27.888Z,11.67
2018-11-28T03:47:56.564Z,12.27
2018-11-28T03:50:25.247Z,11.57
2018-11-28T03:52:54.077Z,11.77
2018-11-28T03:55:23.072Z,11.97
2018-11-28T03:57:51.821Z,13.07
2018-11-28T04:00:21.808Z,12.90
2018-11-28T04:02:50.870Z,11.70
2018-11-28T04:05:19.665Z,10.87
2018-11-28T04:07:51.333Z,11.50
2018-11-28T04:10:20.058Z,12.83
2018-11-28T04:12:48.797Z,14.17
2018-11-28T04:15:19.680Z,11.60
2018-11-28T04:17:48.528Z,12.77
2018-11-28T04:20:19.985Z,11.97
2018-11-28T04:22:48.841Z,13.83
2018-11-28T04:25:18.656Z,11.60
2018-11-28T04:27:47.444Z,12.60
2018-11-28T04:30:18.376Z,13.83
2018-11-28T04:32:47.752Z,12.95
2018-11-28T04:35:16.523Z,11.47
2018-11-28T04:37:45.835Z,12.98
2018-11-28T04:40:15.689Z,14.50
2018-11-28T04:42:44.641Z,11.63
2018-11-28T04:45:19.264Z,12.83
2018-11-28T04:47:48.758Z,12.90
2018-11-28T04:50:17.487Z,13.67
2018-11-28T04:52:46.329Z,10.67
2018-11-28T04:55:19.814Z,11.18
2018-11-28T04:57:49.074Z,11.97
2018-11-28T05:00:21.842Z,11.07
2018-11-28T05:02:50.849Z,12.37
2018-11-28T05:05:19.629Z,11.53
2018-11-28T05:07:49.149Z,11.55
2018-11-28T05:10:22.019Z,10.93
2018-11-28T05:12:51.421Z,15.77
2018-11-28T05:15:20.929Z,9.55
2018-11-28T05:17:50.737Z,10.90
2018-11-28T05:20:20.522Z,10.77
2018-11-28T05:22:49.216Z,11.90
2018-11-28T05:25:19.900Z,11.83
2018-11-28T05:27:49.165Z,12.65
2018-11-28T05:30:22.062Z,12.27
2018-11-28T05:32:50.853Z,11.33
2018-11-28T05:35:23.742Z,12.30
2018-11-28T05:37:52.444Z,13.55
2018-11-28T05:40:23.386Z,12.80
2018-11-28T05:42:52.440Z,12.90
2018-11-28T05:45:21.410Z,12.47
2018-11-28T05:47:50.183Z,13.67
2018-11-28T05:50:20.092Z,13.07
2018-11-28T05:52:48.943Z,11.55
2018-11-28T05:55:18.936Z,12.23
2018-11-28T05:57:47.826Z,13.85
2018-11-28T06:00:39.348Z,12.68
2018-11-28T06:03:13.855Z,11.83
2018-11-28T06:05:43.295Z,12.27
2018-11-28T06:08:12.224Z,11.40
2018-11-28T06:10:41.128Z,12.60
2018-11-28T06:13:09.879Z,12.50
2018-11-28T06:15:38.716Z,12.13
2018-11-28T06:18:08.928Z,12.37
2018-11-28T06:20:37.691Z,11.07
2018-11-28T06:23:06.909Z,12.30
2018-11-28T06:25:35.893Z,12.67
2018-11-28T06:28:05.654Z,10.38
2018-11-28T06:30:35.506Z,10.70
2018-11-28T06:33:04.316Z,14.40
2018-11-28T06:35:33.101Z,10.47
2018-11-28T06:38:01.918Z,11.27
2018-11-28T06:40:31.036Z,11.07
2018-11-28T06:43:00.034Z,10.13
2018-11-28T06:45:28.817Z,14.83
2018-11-28T06:47:57.584Z,11.07
2018-11-28T06:50:26.386Z,11.67
2018-11-28T06:52:55.132Z,12.10
2018-11-28T06:55:23.897Z,13.47
2018-11-28T06:57:52.657Z,12.80
2018-11-28T07:00:22.524Z,11.23
2018-11-28T07:02:52.430Z,11.63
2018-11-28T07:05:21.835Z,13.20
2018-11-28T07:07:50.975Z,13.53
2018-11-28T07:10:21.082Z,11.07
2018-11-28T07:12:49.934Z,11.53
2018-11-28T07:15:20.049Z,12.15
2018-11-28T07:17:48.934Z,12.30
2018-11-28T07:20:17.988Z,13.28
2018-11-28T07:22:46.741Z,11.43
2018-11-28T07:25:20.068Z,15.55
2018-11-28T07:27:49.454Z,11.17
2018-11-28T07:30:22.285Z,13.97
2018-11-28T07:32:52.679Z,12.63
2018-11-28T07:35:21.567Z,14.70
2018-11-28T07:37:50.464Z,11.50
2018-11-28T07:40:21.315Z,10.55
2018-11-28T07:43:11.497Z,10.93
2018-11-28T07:45:41.587Z,10.77
2018-11-28T07:48:10.336Z,12.50
2018-11-28T07:50:39.135Z,12.10
2018-11-28T07:53:07.967Z,11.20
2018-11-28T07:55:36.742Z,11.57
2018-11-28T07:58:06.132Z,10.85
2018-11-28T08:00:36.620Z,10.20
2018-11-28T08:03:07.433Z,10.85
2018-11-28T08:05:37.075Z,11.73
2018-11-28T08:08:07.087Z,11.57
2018-11-28T08:10:36.088Z,11.40
2018-11-28T08:13:06.084Z,10.32
2018-11-28T08:15:35.766Z,9.70
2018-11-28T08:18:05.063Z,11.03
2018-11-28T08:20:33.958Z,11.50
2018-11-28T08:23:02.827Z,12.68
2018-11-28T08:25:31.984Z,14.70
2018-11-28T08:28:00.787Z,10.63
2018-11-28T08:30:29.631Z,13.53
2018-11-28T08:32:58.747Z,12.77
2018-11-28T08:35:27.594Z,11.20
2018-11-28T08:37:56.365Z,12.03
2018-11-28T08:40:27.098Z,11.27
2018-11-28T08:42:57.735Z,15.27
2018-11-28T08:45:26.523Z,14.13
2018-11-28T08:47:56.683Z,16.40
2018-11-28T08:50:29.755Z,10.87
2018-11-28T08:52:58.644Z,14.73
2018-11-28T08:55:27.444Z,15.67
2018-11-28T08:57:56.233Z,13.97
2018-11-28T09:00:26.109Z,17.57
2018-11-28T09:02:55.864Z,13.37
2018-11-28T09:05:24.741Z,12.70
2018-11-28T09:07:53.640Z,14.17
2018-11-28T09:10:22.401Z,14.60
2018-11-28T09:12:52.143Z,13.23
2018-11-28T09:15:25.118Z,14.68
2018-11-28T09:17:53.905Z,14.33
2018-11-28T09:20:22.679Z,14.37
2018-11-28T09:22:51.643Z,13.73
2018-11-28T09:25:20.845Z,13.98
2018-11-28T09:27:50.887Z,13.93
2018-11-28T09:30:20.520Z,15.67
2018-11-28T09:32:50.049Z,14.87
2018-11-28T09:35:19.201Z,15.40
2018-11-28T09:37:48.114Z,16.67
2018-11-28T09:40:17.998Z,18.20
2018-11-28T09:42:46.968Z,20.20
2018-11-28T09:45:16.655Z,23.07
2018-11-28T09:47:45.412Z,26.82
2018-11-28T09:50:17.324Z,23.00
2018-11-28T09:52:46.086Z,23.20
2018-11-28T09:55:17.845Z,23.57
2018-11-28T09:57:46.710Z,23.20
2018-11-28T10:00:18.735Z,23.60
2018-11-28T10:02:48.073Z,25.35
2018-11-28T10:05:18.522Z,26.68
2018-11-28T10:07:47.261Z,25.10
2018-11-28T10:10:16.051Z,27.90
2018-11-28T10:12:44.843Z,29.32
2018-11-28T10:15:19.647Z,31.10
2018-11-28T10:17:48.487Z,31.33
2018-11-28T10:20:17.865Z,28.87
2018-11-28T10:22:47.128Z,33.77
2018-11-28T10:25:18.001Z,35.23
2018-11-28T10:27:47.982Z,33.53
2018-11-28T10:30:26.551Z,37.47
2018-11-28T10:32:55.799Z,37.60
2018-11-28T10:35:24.719Z,40.80
2018-11-28T10:37:54.950Z,37.40
2018-11-28T10:40:25.130Z,37.17
2018-11-28T10:42:58.312Z,41.00
2018-11-28T10:45:28.165Z,41.97
2018-11-28T10:47:56.992Z,47.97
2018-11-28T10:50:25.948Z,42.53
2018-11-28T10:52:54.769Z,45.33
2018-11-28T10:55:25.339Z,43.08
2018-11-28T10:57:54.227Z,47.07
2018-11-28T11:00:34.171Z,46.20
2018-11-28T11:03:08.348Z,48.02
2018-11-28T11:05:42.467Z,49.27
2018-11-28T11:08:16.586Z,53.17
2018-11-28T11:10:50.559Z,51.00
2018-11-28T11:13:24.672Z,46.33
2018-11-28T11:15:58.330Z,50.40
2018-11-28T11:18:28.057Z,49.37
2018-11-28T11:20:56.831Z,54.60
2018-11-28T11:23:25.688Z,48.00
2018-11-28T11:25:54.768Z,51.23
2018-11-28T11:28:23.601Z,42.97
2018-11-28T11:30:52.460Z,48.13
2018-11-28T11:33:21.355Z,50.73
2018-11-28T11:35:50.167Z,48.23
2018-11-28T11:38:18.967Z,48.15
2018-11-28T11:40:47.918Z,49.05
2018-11-28T11:43:16.712Z,45.27
2018-11-28T11:45:45.568Z,47.03
2018-11-28T11:48:14.465Z,43.97
2018-11-28T11:50:43.260Z,44.90
2018-11-28T11:53:12.742Z,44.63
2018-11-28T11:55:41.603Z,43.42
2018-11-28T11:58:10.709Z,44.85
2018-11-28T12:00:41.128Z,48.80
2018-11-28T12:03:12.327Z,48.67
2018-11-28T12:05:43.832Z,47.05
2018-11-28T12:08:12.761Z,43.60
2018-11-28T12:10:41.819Z,45.10
2018-11-28T12:13:10.697Z,46.70
2018-11-28T12:15:39.485Z,42.20
2018-11-28T12:18:08.351Z,42.55
2018-11-28T12:20:58.606Z,46.08
2018-11-28T12:23:27.593Z,47.10
2018-11-28T12:25:56.409Z,45.37
2018-11-28T12:28:25.164Z,43.58
2018-11-28T12:30:54.060Z,41.03
2018-11-28T12:33:23.050Z,43.40
2018-11-28T12:35:51.943Z,43.07
2018-11-28T12:38:21.109Z,46.80
2018-11-28T12:40:49.895Z,43.97
2018-11-28T12:43:18.771Z,40.52
2018-11-28T12:45:48.928Z,38.67
2018-11-28T12:48:17.756Z,41.67
2018-11-28T12:50:46.573Z,42.37
2018-11-28T12:53:15.613Z,43.93
2018-11-28T12:55:44.350Z,43.53
2018-11-28T12:58:21.226Z,41.25
2018-11-28T13:00:50.042Z,42.97
2018-11-28T13:03:19.622Z,45.50
2018-11-28T13:05:48.594Z,38.78
2018-11-28T13:08:17.404Z,37.75
2018-11-28T13:10:46.395Z,38.53
2018-11-28T13:13:15.298Z,38.85
2018-11-28T13:15:44.006Z,39.03
2018-11-28T13:18:12.909Z,37.17
2018-11-28T13:20:43.124Z,37.07
2018-11-28T13:23:13.370Z,37.35
2018-11-28T13:25:43.099Z,40.70
2018-11-28T13:28:12.128Z,39.37
2018-11-28T13:30:41.019Z,37.65
2018-11-28T13:33:10.052Z,39.30
2018-11-28T13:35:38.916Z,36.90
2018-11-28T13:38:12.002Z,37.83
2018-11-28T13:40:41.113Z,35.23
2018-11-28T13:43:10.023Z,34.00
2018-11-28T13:45:44.582Z,36.47
2018-11-28T13:48:13.757Z,34.92
2018-11-28T13:50:42.573Z,34.67
2018-11-28T13:53:15.702Z,35.30
2018-11-28T13:56:57.240Z,36.77
2018-11-28T13:58:24.294Z,34.50
2018-11-28T14:00:53.093Z,33.03
2018-11-28T14:03:21.971Z,38.80
2018-11-28T14:05:51.100Z,35.93
2018-11-28T14:08:19.947Z,32.67
2018-11-28T14:10:48.730Z,36.40
2018-11-28T14:13:17.641Z,33.55
2018-11-28T14:15:46.476Z,35.52
2018-11-28T14:18:16.778Z,36.28
2018-11-28T14:20:45.640Z,36.97
2018-11-28T14:23:14.534Z,36.35
2018-11-28T14:25:43.334Z,37.48
2018-11-28T14:28:12.875Z,39.98
2018-11-28T14:30:41.825Z,43.77
2018-11-28T14:33:10.771Z,41.55
2018-11-28T14:35:42.455Z,33.33
2018-11-28T14:38:12.570Z,38.60
2018-11-28T14:40:42.333Z,37.57
2018-11-28T14:43:11.425Z,48.42
2018-11-28T14:45:40.197Z,33.80
2018-11-28T14:48:08.982Z,32.00
2018-11-28T14:50:46.868Z,35.30
2018-11-28T14:53:22.464Z,33.73
2018-11-28T14:55:51.432Z,36.93
2018-11-28T14:58:20.218Z,36.10
2018-11-28T15:00:49.049Z,34.23
2018-11-28T15:03:20.797Z,35.53
2018-11-28T15:06:24.196Z,37.53
2018-11-28T15:08:53.155Z,33.78
2018-11-28T15:11:21.926Z,37.87
2018-11-28T15:13:50.716Z,35.00
2018-11-28T15:16:19.664Z,34.78
2018-11-28T15:18:48.408Z,37.23
2018-11-28T15:21:17.163Z,38.70
2018-11-28T15:23:46.150Z,36.48
2018-11-28T15:26:14.943Z,36.60
2018-11-28T15:28:43.880Z,35.80
2018-11-28T15:31:12.802Z,39.05
2018-11-28T15:33:41.558Z,37.88
2018-11-28T15:36:14.159Z,36.40
2018-11-28T15:38:43.534Z,40.40
2018-11-28T15:41:12.418Z,35.43
2018-11-28T15:43:41.212Z,36.03
2018-11-28T15:46:14.839Z,37.27
2018-11-28T15:48:39.179Z,36.67
2018-11-28T15:51:07.960Z,36.77
2018-11-28T15:53:36.774Z,39.70
2018-11-28T15:56:05.864Z,36.80
2018-11-28T15:58:34.621Z,40.08
2018-11-28T16:01:03.447Z,37.93
2018-11-28T16:03:33.051Z,36.50
2018-11-28T16:06:02.034Z,38.47
2018-11-28T16:08:30.932Z,35.93
2018-11-28T16:10:59.867Z,37.93
2018-11-28T16:13:28.765Z,38.98
2018-11-28T16:15:58.728Z,37.67
2018-11-28T16:18:27.516Z,38.93
2018-11-28T16:20:56.357Z,40.20
2018-11-28T16:23:25.353Z,38.30
2018-11-28T16:25:54.185Z,39.00
2018-11-28T16:28:22.975Z,39.47
2018-11-28T16:30:51.935Z,46.18
2018-11-28T16:33:20.679Z,37.87
2018-11-28T16:35:49.611Z,41.87
2018-11-28T16:38:18.478Z,42.50
2018-11-28T16:40:47.447Z,39.20
2018-11-28T16:43:16.393Z,43.00
2018-11-28T16:45:45.132Z,40.38
2018-11-28T16:48:13.899Z,38.73
2018-11-28T16:50:43.298Z,41.08
2018-11-28T16:53:12.139Z,41.87
2018-11-28T16:55:40.872Z,38.28
2018-11-28T16:58:09.719Z,37.80
2018-11-28T17:00:41.301Z,40.33
2018-11-28T17:03:10.187Z,40.50
2018-11-28T17:05:39.055Z,39.87
2018-11-28T17:08:09.420Z,36.03
2018-11-28T17:10:38.228Z,39.53
2018-11-28T17:13:07.519Z,41.57
2018-11-28T17:15:36.811Z,39.80
2018-11-28T17:18:06.200Z,37.33
2018-11-28T17:20:34.947Z,38.23
2018-11-28T17:23:03.828Z,38.43
2018-11-28T17:25:33.174Z,41.48
2018-11-28T17:28:01.944Z,39.83
2018-11-28T17:30:31.264Z,38.40
2018-11-28T17:33:00.048Z,38.73
2018-11-28T17:35:28.868Z,37.17
2018-11-28T17:37:57.656Z,38.13
2018-11-28T17:40:27.562Z,38.43
2018-11-28T17:42:58.608Z,38.23
2018-11-28T17:45:28.087Z,42.37
2018-11-28T17:47:56.854Z,37.30
2018-11-28T17:50:26.852Z,43.80
2018-11-28T17:53:12.801Z,38.63
2018-11-28T17:55:46.127Z,36.93
2018-11-28T17:58:14.924Z,37.78
2018-11-28T18:00:43.726Z,38.67
2018-11-28T18:03:12.708Z,39.37
2018-11-28T18:05:41.465Z,36.45
2018-11-28T18:08:10.575Z,35.93
2018-11-28T18:10:39.441Z,37.23
2018-11-28T18:13:10.293Z,37.83
2018-11-28T18:15:39.641Z,38.27
2018-11-28T18:18:10.953Z,38.47
2018-11-28T18:20:40.078Z,37.20
2018-11-28T18:23:09.962Z,36.90
2018-11-28T18:25:39.889Z,34.90
2018-11-28T18:28:09.327Z,36.47
2018-11-28T18:30:45.099Z,37.80
2018-11-28T18:33:14.803Z,36.48
2018-11-28T18:35:43.848Z,37.27
2018-11-28T18:38:12.749Z,35.83
2018-11-28T18:40:41.538Z,38.77
2018-11-28T18:43:11.007Z,37.57
2018-11-28T18:45:43.544Z,35.57
2018-11-28T18:48:12.405Z,40.50
2018-11-28T18:50:41.188Z,37.70
2018-11-28T18:53:10.071Z,36.23
2018-11-28T18:55:38.893Z,37.42
2018-11-28T18:58:09.171Z,37.33
2018-11-28T19:00:37.960Z,37.23
2018-11-28T19:03:07.997Z,35.10
2018-11-28T19:05:37.144Z,37.65
2018-11-28T19:08:07.810Z,35.50
2018-11-28T19:10:37.045Z,35.98
2018-11-28T19:13:07.016Z,37.17
2018-11-28T19:15:36.213Z,40.75
2018-11-28T19:18:05.045Z,37.63
2018-11-28T19:20:33.788Z,35.83
2018-11-28T19:23:02.701Z,40.00
2018-11-28T19:25:31.444Z,40.57
2018-11-28T19:28:00.239Z,43.57
2018-11-28T19:30:32.370Z,39.13
2018-11-28T19:33:01.138Z,35.80
2018-11-28T19:35:30.043Z,35.23
2018-11-28T19:37:59.010Z,36.23
2018-11-28T19:40:37.604Z,38.10
2018-11-28T19:43:07.170Z,37.35
2018-11-28T19:45:37.005Z,36.97
2018-11-28T19:48:06.513Z,36.27
2018-11-28T19:50:36.056Z,35.80
2018-11-28T19:53:05.340Z,37.57
2018-11-28T19:55:33.798Z,36.47
2018-11-28T19:58:03.003Z,35.27
2018-11-28T20:00:31.725Z,37.20
2018-11-28T20:03:00.481Z,39.37
2018-11-28T20:05:29.335Z,36.27
2018-11-28T20:07:58.073Z,38.43
2018-11-28T20:10:26.822Z,38.70
2018-11-28T20:12:56.060Z,36.60
2018-11-28T20:15:26.140Z,36.97
2018-11-28T20:17:55.013Z,37.25
2018-11-28T20:20:24.000Z,36.70
2018-11-28T20:22:52.728Z,40.13
2018-11-28T20:25:22.765Z,35.33
2018-11-28T20:27:56.070Z,39.18
2018-11-28T20:30:28.338Z,35.25
2018-11-28T20:32:57.336Z,36.13
2018-11-28T20:35:26.110Z,36.93
2018-11-28T20:37:54.897Z,37.45
2018-11-28T20:40:23.765Z,38.80
2018-11-28T20:42:53.614Z,37.17
2018-11-28T20:45:22.384Z,35.53
2018-11-28T20:47:51.154Z,34.98
2018-11-28T20:50:26.369Z,39.10
2018-11-28T20:52:56.818Z,37.70
2018-11-28T20:55:25.608Z,37.53
2018-11-28T20:57:54.546Z,36.17
2018-11-28T21:00:25.036Z,39.10
2018-11-28T21:02:53.887Z,36.88
2018-11-28T21:05:22.733Z,38.48
2018-11-28T21:07:51.594Z,36.83
2018-11-28T21:10:25.606Z,36.15
2018-11-28T21:12:54.467Z,32.63
2018-11-28T21:15:23.731Z,37.15
2018-11-28T21:17:52.490Z,34.50
2018-11-28T21:20:22.274Z,38.87
2018-11-28T21:22:53.237Z,39.43
2018-11-28T21:25:22.051Z,36.87
2018-11-28T21:27:50.939Z,37.03
2018-11-28T21:30:20.828Z,37.73
2018-11-28T21:32:50.955Z,36.43
2018-11-28T21:35:22.301Z,39.83
2018-11-28T21:37:51.319Z,35.20
2018-11-28T21:40:20.250Z,36.90
2018-11-28T21:42:49.958Z,37.23
2018-11-28T21:45:19.868Z,36.30
2018-11-28T21:47:48.693Z,35.40
2018-11-28T21:50:18.813Z,36.37
2018-11-28T21:52:47.672Z,37.60
2018-11-28T21:55:21.476Z,37.98
2018-11-28T21:57:50.445Z,37.70
2018-11-28T22:00:25.128Z,37.37
2018-11-28T22:02:54.068Z,34.73
2018-11-28T22:05:23.379Z,36.83
2018-11-28T22:07:53.054Z,38.42
2018-11-28T22:10:23.743Z,37.10
2018-11-28T22:13:01.041Z,38.60
2018-11-28T22:15:30.155Z,35.63
2018-11-28T22:17:59.406Z,35.40
2018-11-28T22:20:28.442Z,34.73
2018-11-28T22:22:57.856Z,35.67
2018-11-28T22:25:27.964Z,34.63
2018-11-28T22:27:56.939Z,38.50
2018-11-28T22:30:27.056Z,35.53
2018-11-28T22:32:55.928Z,34.30
2018-11-28T22:35:24.941Z,37.90
2018-11-28T22:37:53.682Z,37.38
2018-11-28T22:40:23.741Z,40.50
2018-11-28T22:42:52.859Z,38.10
2018-11-28T22:45:23.794Z,35.93
2018-11-28T22:47:52.769Z,37.23
2018-11-28T22:50:21.736Z,37.23
2018-11-28T22:52:50.425Z,38.13
2018-11-28T22:55:19.982Z,37.48
2018-11-28T22:57:48.812Z,39.73
2018-11-28T23:00:29.258Z,33.28
2018-11-28T23:03:12.686Z,35.13
2018-11-28T23:05:49.784Z,37.47
2018-11-28T23:08:20.725Z,36.50
2018-11-28T23:10:50.333Z,36.77
2018-11-28T23:13:22.655Z,38.00
2018-11-28T23:15:51.859Z,36.20
2018-11-28T23:18:28.352Z,35.93
2018-11-28T23:20:57.257Z,35.77
2018-11-28T23:23:26.262Z,35.97
2018-11-28T23:25:55.198Z,35.67
2018-11-28T23:28:24.095Z,37.20
2018-11-28T23:30:53.103Z,34.13
2018-11-28T23:33:22.226Z,35.05
2018-11-28T23:35:51.327Z,34.00
2018-11-28T23:38:20.344Z,35.47
2018-11-28T23:40:49.205Z,35.73
2018-11-28T23:43:18.236Z,32.00
2018-11-28T23:45:47.090Z,32.37
2018-11-28T23:48:16.132Z,38.98
2018-11-28T23:50:45.238Z,36.67
2018-11-28T23:53:17.375Z,37.60
2018-11-28T23:55:46.617Z,35.10
2018-11-28T23:58:15.537Z,36.35
